createdAt,value
2023-04-13T00:00:25.751Z,8.04
2023-04-13T00:02:56.051Z,8.07
2023-04-13T00:05:24.798Z,7.93
2023-04-13T00:07:53.163Z,7.96
2023-04-13T00:10:21.874Z,7.92
2023-04-13T00:12:50.074Z,8.03
2023-04-13T00:15:20.240Z,7.96
2023-04-13T00:17:48.464Z,8.12
2023-04-13T00:20:16.834Z,7.94
2023-04-13T00:22:45.357Z,8.10
2023-04-13T00:25:14.897Z,8.08
2023-04-13T00:27:43.867Z,7.91
2023-04-13T00:30:14.297Z,7.94
2023-04-13T00:32:44.964Z,8.06
2023-04-13T00:35:16.872Z,7.56
2023-04-13T00:37:47.045Z,7.40
2023-04-13T00:40:18.103Z,7.41
2023-04-13T00:42:46.112Z,7.29
2023-04-13T00:45:14.536Z,7.33
2023-04-13T00:47:46.640Z,7.44
2023-04-13T00:50:15.265Z,7.34
2023-04-13T00:52:43.685Z,7.28
2023-04-13T00:55:11.447Z,7.36
2023-04-13T00:57:40.686Z,7.32
2023-04-13T01:00:10.242Z,7.22
2023-04-13T01:02:41.941Z,7.37
2023-04-13T01:05:15.689Z,7.25
2023-04-13T01:07:55.442Z,7.18
2023-04-13T01:10:29.008Z,7.08
2023-04-13T01:13:09.501Z,7.09
2023-04-13T01:15:46.917Z,7.17
2023-04-13T01:18:18.529Z,7.02
2023-04-13T01:20:49.436Z,6.98
2023-04-13T01:23:26.508Z,6.91
2023-04-13T01:25:58.648Z,6.85
2023-04-13T01:28:29.966Z,6.62
2023-04-13T01:31:00.748Z,6.76
2023-04-13T01:33:30.509Z,6.77
2023-04-13T01:36:02.240Z,6.62
2023-04-13T01:38:31.279Z,6.55
2023-04-13T01:41:01.481Z,6.57
2023-04-13T01:43:33.553Z,6.58
2023-04-13T01:46:10.207Z,6.61
2023-04-13T01:48:55.647Z,6.54
2023-04-13T01:51:39.115Z,6.55
2023-04-13T01:54:13.993Z,6.62
2023-04-13T01:56:45.426Z,6.55
2023-04-13T01:59:16.680Z,6.65
2023-04-13T02:01:45.227Z,6.45
2023-04-13T02:04:14.034Z,6.60
2023-04-13T02:06:43.538Z,6.66
2023-04-13T02:09:11.825Z,6.55
2023-04-13T02:11:39.518Z,6.42
2023-04-13T02:14:09.595Z,6.49
2023-04-13T02:16:38.957Z,6.62
2023-04-13T02:19:06.931Z,6.60
2023-04-13T02:21:34.948Z,6.80
2023-04-13T02:24:02.790Z,6.76
2023-04-13T02:26:30.388Z,6.67
2023-04-13T02:28:58.107Z,6.74
2023-04-13T02:31:26.055Z,6.81
2023-04-13T02:33:55.173Z,6.87
2023-04-13T02:36:24.998Z,6.87
2023-04-13T02:38:57.050Z,6.92
2023-04-13T02:41:29.751Z,6.86
2023-04-13T02:43:58.444Z,7.02
2023-04-13T02:46:31.337Z,7.04
2023-04-13T02:49:10.183Z,7.04
2023-04-13T02:51:44.652Z,7.14
2023-04-13T02:54:13.604Z,7.07
2023-04-13T02:56:46.100Z,7.13
2023-04-13T02:59:14.536Z,7.08
2023-04-13T03:01:45.980Z,7.05
2023-04-13T03:04:17.133Z,7.29
2023-04-13T03:06:46.363Z,7.10
2023-04-13T03:09:16.286Z,7.27
2023-04-13T03:11:49.562Z,7.34
2023-04-13T03:14:22.171Z,7.34
2023-04-13T03:16:58.738Z,7.21
2023-04-13T03:19:36.598Z,7.30
2023-04-13T03:22:05.428Z,7.17
2023-04-13T03:24:35.773Z,7.26
2023-04-13T03:27:09.794Z,7.20
2023-04-13T03:29:45.803Z,7.25
2023-04-13T03:32:19.823Z,7.28
2023-04-13T03:34:52.169Z,7.13
2023-04-13T03:37:19.806Z,7.15
2023-04-13T03:39:48.142Z,7.18
2023-04-13T03:42:20.508Z,7.23
2023-04-13T03:44:54.611Z,7.23
2023-04-13T03:47:22.375Z,7.11
2023-04-13T03:49:52.246Z,7.13
2023-04-13T03:52:20.394Z,7.23
2023-04-13T03:54:55.292Z,7.21
2023-04-13T03:57:23.894Z,7.19
2023-04-13T03:59:51.574Z,7.15
2023-04-13T04:02:28.470Z,7.18
2023-04-13T04:04:57.678Z,7.15
2023-04-13T04:07:25.586Z,7.05
2023-04-13T04:09:53.537Z,6.99
2023-04-13T04:12:24.724Z,7.01
2023-04-13T04:14:52.316Z,6.92
2023-04-13T04:17:25.491Z,6.79
2023-04-13T04:19:53.116Z,6.83
2023-04-13T04:22:29.770Z,6.37
2023-04-13T04:24:59.085Z,6.62
2023-04-13T04:27:27.596Z,6.74
2023-04-13T04:29:59.327Z,6.83
2023-04-13T04:32:35.861Z,6.85
2023-04-13T04:35:12.010Z,6.91
2023-04-13T04:37:49.748Z,6.78
2023-04-13T04:40:19.631Z,6.71
2023-04-13T04:42:47.394Z,6.87
2023-04-13T04:45:30.296Z,6.87
2023-04-13T04:48:00.542Z,6.71
2023-04-13T04:50:28.721Z,6.84
2023-04-13T04:53:24.460Z,6.73
2023-04-13T04:55:52.388Z,6.80
2023-04-13T04:58:37.944Z,6.85
2023-04-13T05:01:05.953Z,6.69
2023-04-13T05:03:34.560Z,6.72
2023-04-13T05:06:17.356Z,6.71
2023-04-13T05:08:46.896Z,6.78
2023-04-13T05:11:15.361Z,6.74
2023-04-13T05:13:43.041Z,6.81
2023-04-13T05:16:24.202Z,6.64
2023-04-13T05:18:53.914Z,6.82
2023-04-13T05:21:40.967Z,6.90
2023-04-13T05:24:11.384Z,6.55
2023-04-13T05:26:40.867Z,6.67
2023-04-13T05:29:09.321Z,6.50
2023-04-13T05:31:40.831Z,6.75
2023-04-13T05:34:08.573Z,6.65
2023-04-13T05:36:39.115Z,6.83
2023-04-13T05:39:13.870Z,6.69
2023-04-13T05:41:41.561Z,6.51
2023-04-13T05:44:09.706Z,6.49
2023-04-13T05:46:38.493Z,6.27
2023-04-13T05:49:07.339Z,6.44
2023-04-13T05:51:35.376Z,6.29
2023-04-13T05:54:03.261Z,6.35
2023-04-13T05:56:34.291Z,6.53
2023-04-13T05:59:03.133Z,6.38
2023-04-13T06:01:30.939Z,6.53
2023-04-13T06:03:58.965Z,6.45
2023-04-13T06:06:26.686Z,6.55
2023-04-13T06:08:54.468Z,6.58
2023-04-13T06:11:24.668Z,6.42
2023-04-13T06:13:53.922Z,6.58
2023-04-13T06:16:23.264Z,6.64
2023-04-13T06:18:51.855Z,6.55
2023-04-13T06:21:19.440Z,6.56
2023-04-13T06:23:49.216Z,6.62
2023-04-13T06:26:28.146Z,6.64
2023-04-13T06:28:59.185Z,6.71
2023-04-13T06:31:28.200Z,6.47
2023-04-13T06:34:00.271Z,6.67
2023-04-13T06:36:32.911Z,6.55
2023-04-13T06:39:04.149Z,6.72
2023-04-13T06:41:33.598Z,6.82
2023-04-13T06:44:16.818Z,6.80
2023-04-13T06:46:56.698Z,7.10
2023-04-13T06:49:25.987Z,6.98
2023-04-13T06:51:53.768Z,7.09
2023-04-13T06:54:22.054Z,7.15
2023-04-13T06:56:57.093Z,7.20
2023-04-13T06:59:26.151Z,7.41
2023-04-13T07:01:53.887Z,7.53
2023-04-13T07:04:21.722Z,7.36
2023-04-13T07:06:49.788Z,7.51
2023-04-13T07:09:17.451Z,7.48
2023-04-13T07:11:46.326Z,7.61
2023-04-13T07:14:15.929Z,7.61
2023-04-13T07:16:45.264Z,7.77
2023-04-13T07:19:14.779Z,7.90
2023-04-13T07:21:42.744Z,7.86
2023-04-13T07:24:10.371Z,7.67
2023-04-13T07:26:41.244Z,7.62
2023-04-13T07:29:13.446Z,7.65
2023-04-13T07:31:47.832Z,7.36
2023-04-13T07:34:15.571Z,7.59
2023-04-13T07:36:46.296Z,7.49
2023-04-13T07:39:18.772Z,7.37
2023-04-13T07:41:49.530Z,7.43
2023-04-13T07:44:23.419Z,7.46
2023-04-13T07:46:52.636Z,7.57
2023-04-13T07:49:21.050Z,7.49
2023-04-13T07:51:48.760Z,7.61
2023-04-13T07:54:17.739Z,7.69
2023-04-13T07:56:47.173Z,7.76
2023-04-13T07:59:15.737Z,8.16
2023-04-13T08:01:46.889Z,8.22
2023-04-13T08:04:16.312Z,8.39
2023-04-13T08:06:45.878Z,8.21
2023-04-13T08:09:13.862Z,8.46
2023-04-13T08:11:42.909Z,8.51
2023-04-13T08:14:11.989Z,8.62
2023-04-13T08:16:41.019Z,8.75
2023-04-13T08:19:11.145Z,8.83
2023-04-13T08:21:45.399Z,8.84
2023-04-13T08:24:13.167Z,8.63
2023-04-13T08:26:40.832Z,8.45
2023-04-13T08:29:08.951Z,8.80
2023-04-13T08:31:37.427Z,8.74
2023-04-13T08:34:06.970Z,8.68
2023-04-13T08:36:34.600Z,8.89
2023-04-13T08:39:10.227Z,9.34
2023-04-13T08:41:42.027Z,9.18
2023-04-13T08:44:13.353Z,9.25
2023-04-13T08:46:45.786Z,8.70
2023-04-13T08:49:14.784Z,8.85
2023-04-13T08:52:04.837Z,8.95
2023-04-13T08:54:35.099Z,9.09
2023-04-13T08:57:05.958Z,8.60
2023-04-13T08:59:34.498Z,8.92
2023-04-13T09:02:04.781Z,8.47
2023-04-13T09:04:44.109Z,8.83
2023-04-13T09:07:18.010Z,8.90
2023-04-13T09:09:48.386Z,9.06
2023-04-13T09:12:15.992Z,8.78
2023-04-13T09:14:45.198Z,8.95
2023-04-13T09:17:25.658Z,9.11
2023-04-13T09:19:56.279Z,9.45
2023-04-13T09:22:25.854Z,9.20
2023-04-13T09:24:54.980Z,9.25
2023-04-13T09:27:24.035Z,9.37
2023-04-13T09:29:53.126Z,9.58
2023-04-13T09:32:22.597Z,9.79
2023-04-13T09:35:01.578Z,10.01
2023-04-13T09:37:41.634Z,9.81
2023-04-13T09:40:13.070Z,10.10
2023-04-13T09:42:41.598Z,10.23
2023-04-13T09:45:10.402Z,10.46
2023-04-13T09:47:41.263Z,10.96
2023-04-13T09:50:19.342Z,11.18
2023-04-13T09:52:47.221Z,11.61
2023-04-13T09:55:17.960Z,11.13
2023-04-13T09:57:45.886Z,11.84
2023-04-13T10:00:20.597Z,11.61
2023-04-13T10:02:50.560Z,11.84
2023-04-13T10:05:19.716Z,11.27
2023-04-13T10:07:48.487Z,11.28
2023-04-13T10:10:17.730Z,11.65
2023-04-13T10:12:49.040Z,11.37
2023-04-13T10:15:30.087Z,11.20
2023-04-13T10:18:07.916Z,10.87
2023-04-13T10:20:36.766Z,11.34
2023-04-13T10:23:05.731Z,11.38
2023-04-13T10:25:38.325Z,10.95
2023-04-13T10:28:07.365Z,11.24
2023-04-13T10:30:35.199Z,10.61
2023-04-13T10:33:05.558Z,10.35
2023-04-13T10:35:37.475Z,10.29
2023-04-13T10:38:05.756Z,10.23
2023-04-13T10:40:45.269Z,10.34
2023-04-13T10:43:13.112Z,10.05
2023-04-13T10:45:40.908Z,10.09
2023-04-13T10:48:08.708Z,9.63
2023-04-13T10:50:37.896Z,9.26
2023-04-13T10:53:07.500Z,9.40
2023-04-13T10:55:35.961Z,9.14
2023-04-13T10:58:16.243Z,9.15
2023-04-13T11:00:47.085Z,9.41
2023-04-13T11:03:17.746Z,9.33
2023-04-13T11:05:46.034Z,9.29
2023-04-13T11:08:18.722Z,8.98
2023-04-13T11:10:52.423Z,8.74
2023-04-13T11:13:21.804Z,8.79
2023-04-13T11:15:50.522Z,8.81
2023-04-13T11:18:26.571Z,9.03
2023-04-13T11:20:54.805Z,9.06
2023-04-13T11:23:24.119Z,9.25
2023-04-13T11:25:54.692Z,9.39
2023-04-13T11:28:25.180Z,9.24
2023-04-13T11:30:54.546Z,9.47
2023-04-13T11:33:26.523Z,9.56
2023-04-13T11:35:55.290Z,9.19
2023-04-13T11:38:22.897Z,9.09
2023-04-13T11:40:56.770Z,9.16
2023-04-13T11:43:30.957Z,8.99
2023-04-13T11:45:58.878Z,9.07
2023-04-13T11:48:27.350Z,9.21
2023-04-13T11:50:56.390Z,9.27
2023-04-13T11:53:24.289Z,9.39
2023-04-13T11:55:53.680Z,9.64
2023-04-13T11:58:22.127Z,9.43
2023-04-13T12:00:51.195Z,9.67
2023-04-13T12:06:02.113Z,9.89
2023-04-13T12:08:30.708Z,9.85
2023-04-13T12:11:35.527Z,9.41
2023-04-13T12:14:05.888Z,9.20
2023-04-13T12:17:03.203Z,9.05
2023-04-13T12:19:27.420Z,8.98
2023-04-13T12:21:57.458Z,9.37
2023-04-13T12:24:33.728Z,9.66
2023-04-13T12:29:38.342Z,9.84
2023-04-13T12:32:14.699Z,10.32
2023-04-13T12:34:43.063Z,10.39
2023-04-13T12:37:11.802Z,10.66
2023-04-13T12:39:39.594Z,10.32
2023-04-13T12:42:07.413Z,10.46
2023-04-13T12:44:35.016Z,10.68
2023-04-13T12:47:03.432Z,10.63
2023-04-13T12:49:32.367Z,10.88
2023-04-13T12:52:00.353Z,11.07
2023-04-13T12:54:30.628Z,10.93
2023-04-13T12:56:59.826Z,11.37
2023-04-13T12:59:27.390Z,10.89
2023-04-13T13:01:55.130Z,11.16
2023-04-13T13:04:22.777Z,11.33
2023-04-13T13:06:52.520Z,11.40
2023-04-13T13:09:20.646Z,10.81
2023-04-13T13:11:48.248Z,9.91
2023-04-13T13:14:16.395Z,10.05
2023-04-13T13:16:44.041Z,10.58
2023-04-13T13:19:12.010Z,10.99
2023-04-13T13:21:39.582Z,10.53
2023-04-13T13:24:09.417Z,10.91
2023-04-13T13:27:00.222Z,10.51
2023-04-13T13:29:25.343Z,10.70
2023-04-13T13:31:53.073Z,10.08
2023-04-13T13:34:21.381Z,10.02
2023-04-13T13:36:49.490Z,9.89
2023-04-13T13:39:21.252Z,10.04
2023-04-13T13:41:48.879Z,10.10
2023-04-13T13:44:16.647Z,10.02
2023-04-13T13:46:44.318Z,10.12
2023-04-13T13:49:12.277Z,10.35
2023-04-13T13:51:57.375Z,10.02
2023-04-13T13:54:29.616Z,10.06
2023-04-13T13:56:57.584Z,9.96
2023-04-13T13:59:25.229Z,10.38
2023-04-13T14:01:52.958Z,10.61
2023-04-13T14:04:21.257Z,10.71
2023-04-13T14:06:49.913Z,10.39
2023-04-13T14:09:19.198Z,10.24
2023-04-13T14:11:48.335Z,10.39
2023-04-13T14:14:22.004Z,10.15
2023-04-13T14:16:50.165Z,10.53
2023-04-13T14:19:20.732Z,10.82
2023-04-13T14:21:48.968Z,10.76
2023-04-13T14:24:16.964Z,10.51
2023-04-13T14:26:44.552Z,10.70
2023-04-13T14:29:13.781Z,10.09
2023-04-13T14:31:41.442Z,10.21
2023-04-13T14:34:09.225Z,9.69
2023-04-13T14:36:36.863Z,9.96
2023-04-13T14:39:05.246Z,9.96
2023-04-13T14:41:32.853Z,10.08
2023-04-13T14:44:00.750Z,10.21
2023-04-13T14:46:29.735Z,10.53
2023-04-13T14:48:57.450Z,10.64
2023-04-13T14:51:25.235Z,10.48
2023-04-13T14:53:56.444Z,10.18
2023-04-13T14:56:26.056Z,10.09
2023-04-13T14:58:54.001Z,10.13
2023-04-13T15:01:22.540Z,10.18
2023-04-13T15:03:53.408Z,10.20
2023-04-13T15:06:21.179Z,10.61
2023-04-13T15:08:49.085Z,10.82
2023-04-13T15:11:16.644Z,10.91
2023-04-13T15:13:44.217Z,10.99
2023-04-13T15:16:11.996Z,10.97
2023-04-13T15:18:39.792Z,11.12
2023-04-13T15:21:08.705Z,11.25
2023-04-13T15:23:36.480Z,11.23
2023-04-13T15:26:04.446Z,11.41
2023-04-13T15:28:32.077Z,11.47
2023-04-13T15:31:00.285Z,11.36
2023-04-13T15:33:27.855Z,11.19
2023-04-13T15:35:55.705Z,10.95
2023-04-13T15:38:25.116Z,10.93
2023-04-13T15:40:52.907Z,10.88
2023-04-13T15:43:20.613Z,10.77
2023-04-13T15:45:48.548Z,10.85
2023-04-13T15:48:16.754Z,10.82
2023-04-13T15:50:44.321Z,10.95
2023-04-13T15:53:11.938Z,10.93
2023-04-13T15:55:42.504Z,10.86
2023-04-13T15:58:10.088Z,10.73
2023-04-13T16:00:37.909Z,10.80
2023-04-13T16:03:05.834Z,10.72
2023-04-13T16:05:33.718Z,10.74
2023-04-13T16:08:01.519Z,10.77
2023-04-13T16:10:29.337Z,10.68
2023-04-13T16:12:58.377Z,10.76
2023-04-13T16:15:26.623Z,10.67
2023-04-13T16:17:56.818Z,10.72
2023-04-13T16:20:28.473Z,10.76
2023-04-13T16:22:59.299Z,10.79
2023-04-13T16:25:27.185Z,10.83
2023-04-13T16:27:56.124Z,10.87
2023-04-13T16:30:25.988Z,10.96
2023-04-13T16:32:53.632Z,10.90
2023-04-13T16:35:21.503Z,10.86
2023-04-13T16:37:49.118Z,10.81
2023-04-13T16:40:17.596Z,10.70
2023-04-13T16:42:46.137Z,10.40
2023-04-13T16:45:15.180Z,10.25
2023-04-13T16:47:44.589Z,10.24
2023-04-13T16:50:13.244Z,10.14
2023-04-13T16:52:41.142Z,10.08
2023-04-13T16:55:13.956Z,9.91
2023-04-13T16:57:42.642Z,9.92
2023-04-13T17:00:11.424Z,10.10
2023-04-13T17:02:41.809Z,10.13
2023-04-13T17:05:12.858Z,10.16
2023-04-13T17:07:41.986Z,9.89
2023-04-13T17:10:12.374Z,9.92
2023-04-13T17:12:40.295Z,9.93
2023-04-13T17:15:09.537Z,9.92
2023-04-13T17:17:38.167Z,9.91
2023-04-13T17:20:07.638Z,9.85
2023-04-13T17:22:36.699Z,9.90
2023-04-13T17:25:05.108Z,9.85
2023-04-13T17:27:32.676Z,9.89
2023-04-13T17:30:00.819Z,9.81
2023-04-13T17:32:28.517Z,9.76
2023-04-13T17:34:57.196Z,9.77
2023-04-13T17:37:24.916Z,9.76
2023-04-13T17:39:53.949Z,9.74
2023-04-13T17:42:21.675Z,9.75
2023-04-13T17:44:50.088Z,9.68
2023-04-13T17:47:18.060Z,9.58
2023-04-13T17:49:45.640Z,9.57
2023-04-13T17:52:13.415Z,9.50
2023-04-13T17:54:41.025Z,9.45
2023-04-13T17:57:10.441Z,9.39
2023-04-13T17:59:38.079Z,9.44
2023-04-13T18:02:05.866Z,9.35
2023-04-13T18:04:33.775Z,9.13
2023-04-13T18:07:01.652Z,8.52
2023-04-13T18:09:29.395Z,8.60
2023-04-13T18:11:57.289Z,8.75
2023-04-13T18:14:26.386Z,8.79
2023-04-13T18:16:54.312Z,8.88
2023-04-13T18:19:22.071Z,8.84
2023-04-13T18:21:50.038Z,8.90
2023-04-13T18:24:17.933Z,9.02
2023-04-13T18:26:45.945Z,9.10
2023-04-13T18:29:14.003Z,9.11
2023-04-13T18:31:43.092Z,9.16
2023-04-13T18:34:13.344Z,9.18
2023-04-13T18:36:42.212Z,9.16
2023-04-13T18:39:09.902Z,9.21
2023-04-13T18:41:39.652Z,9.18
2023-04-13T18:44:09.364Z,9.09
2023-04-13T18:46:37.157Z,9.23
2023-04-13T18:49:06.131Z,9.21
2023-04-13T18:51:33.998Z,9.20
2023-04-13T18:54:02.044Z,9.17
2023-04-13T18:56:29.915Z,9.11
2023-04-13T18:58:57.482Z,9.09
2023-04-13T19:01:25.289Z,9.07
2023-04-13T19:03:53.611Z,9.05
2023-04-13T19:06:23.810Z,9.02
2023-04-13T19:08:51.418Z,9.00
2023-04-13T19:11:19.941Z,9.02
2023-04-13T19:13:48.043Z,8.98
2023-04-13T19:16:15.867Z,8.96
2023-04-13T19:18:43.476Z,8.91
2023-04-13T19:21:11.473Z,8.88
2023-04-13T19:23:40.764Z,8.91
2023-04-13T19:26:08.474Z,8.83
2023-04-13T19:28:36.506Z,8.77
2023-04-13T19:31:04.263Z,8.75
2023-04-13T19:33:33.438Z,8.70
2023-04-13T19:36:01.677Z,8.73
2023-04-13T19:38:29.273Z,8.68
2023-04-13T19:40:58.666Z,8.72
2023-04-13T19:43:28.040Z,8.71
2023-04-13T19:45:56.405Z,8.70
2023-04-13T19:48:24.302Z,8.80
2023-04-13T19:50:51.888Z,8.75
2023-04-13T19:53:19.617Z,8.72
2023-04-13T19:55:47.187Z,8.64
2023-04-13T19:58:16.813Z,8.57
2023-04-13T20:00:47.374Z,8.50
2023-04-13T20:03:15.361Z,8.37
2023-04-13T20:05:43.125Z,8.45
2023-04-13T20:08:11.024Z,8.48
2023-04-13T20:10:38.601Z,8.49
2023-04-13T20:13:06.453Z,8.47
2023-04-13T20:15:35.504Z,8.27
2023-04-13T20:18:06.988Z,8.39
2023-04-13T20:20:35.200Z,8.08
2023-04-13T20:23:03.102Z,8.12
2023-04-13T20:25:30.830Z,8.11
2023-04-13T20:27:58.533Z,8.08
2023-04-13T20:30:26.661Z,8.06
2023-04-13T20:32:55.873Z,8.07
2023-04-13T20:35:23.507Z,8.03
2023-04-13T20:37:52.219Z,7.96
2023-04-13T20:40:26.598Z,8.00
2023-04-13T20:42:55.206Z,7.99
2023-04-13T20:45:23.231Z,8.05
2023-04-13T20:47:53.162Z,7.92
2023-04-13T20:50:25.011Z,7.86
2023-04-13T20:52:56.910Z,7.79
2023-04-13T20:55:26.217Z,7.66
2023-04-13T20:57:54.117Z,7.56
2023-04-13T21:00:24.866Z,7.46
2023-04-13T21:02:55.100Z,7.38
2023-04-13T21:05:24.248Z,7.33
2023-04-13T21:07:51.846Z,7.28
2023-04-13T21:10:19.487Z,7.35
2023-04-13T21:12:47.207Z,7.31
2023-04-13T21:15:15.003Z,7.33
2023-04-13T21:17:42.753Z,7.31
2023-04-13T21:20:11.653Z,7.32
2023-04-13T21:22:40.821Z,7.30
2023-04-13T21:25:08.770Z,7.31
2023-04-13T21:27:36.410Z,7.29
2023-04-13T21:30:04.240Z,7.36
2023-04-13T21:32:32.029Z,7.37
2023-04-13T21:35:00.379Z,7.33
2023-04-13T21:37:28.855Z,7.32
2023-04-13T21:39:58.569Z,7.20
2023-04-13T21:42:26.217Z,7.18
2023-04-13T21:44:56.095Z,7.23
2023-04-13T21:47:24.018Z,7.16
2023-04-13T21:49:51.681Z,7.11
2023-04-13T21:52:19.243Z,7.11
2023-04-13T21:54:47.199Z,7.12
2023-04-13T21:57:16.303Z,7.08
2023-04-13T21:59:43.871Z,6.92
2023-04-13T22:02:11.543Z,6.94
2023-04-13T22:04:39.285Z,6.91
2023-04-13T22:07:07.085Z,7.02
2023-04-13T22:09:34.701Z,6.89
2023-04-13T22:12:02.317Z,6.93
2023-04-13T22:14:31.726Z,6.82
2023-04-13T22:16:59.446Z,6.88
2023-04-13T22:19:27.328Z,6.82
2023-04-13T22:21:54.874Z,6.82
2023-04-13T22:24:22.682Z,6.77
2023-04-13T22:26:51.200Z,6.74
2023-04-13T22:29:18.822Z,6.78
2023-04-13T22:31:47.866Z,6.83
2023-04-13T22:34:15.689Z,6.95
2023-04-13T22:36:43.251Z,6.71
2023-04-13T22:39:10.868Z,6.77
2023-04-13T22:41:38.473Z,6.69
2023-04-13T22:44:06.437Z,6.82
2023-04-13T22:46:34.229Z,6.65
2023-04-13T22:49:04.768Z,6.72
2023-04-13T22:51:38.844Z,6.61
2023-04-13T22:54:06.863Z,6.67
2023-04-13T22:56:34.460Z,6.68
2023-04-13T22:59:03.159Z,6.70
2023-04-13T23:01:31.196Z,6.76
2023-04-13T23:03:59.090Z,6.78
2023-04-13T23:06:28.438Z,6.75
2023-04-13T23:08:56.573Z,6.74
2023-04-13T23:11:24.135Z,6.72
2023-04-13T23:13:55.017Z,6.74
2023-04-13T23:16:22.921Z,6.76
2023-04-13T23:18:50.587Z,6.79
2023-04-13T23:21:18.186Z,6.76
2023-04-13T23:23:47.385Z,6.79
2023-04-13T23:26:14.976Z,6.86
2023-04-13T23:28:43.025Z,6.82
2023-04-13T23:31:10.807Z,6.82
2023-04-13T23:33:38.865Z,6.75
2023-04-13T23:36:07.028Z,6.72
2023-04-13T23:38:34.829Z,6.77
2023-04-13T23:41:03.805Z,6.80
2023-04-13T23:43:31.508Z,6.82
2023-04-13T23:45:59.130Z,6.82
2023-04-13T23:48:27.349Z,6.80
2023-04-13T23:50:55.353Z,6.81
2023-04-13T23:53:23.239Z,6.81
2023-04-13T23:55:51.007Z,6.77
2023-04-13T23:58:20.070Z,6.69
